Lebanon, CT (06249)

5:56 PM EDT on August 29, 2016 (GMT -0400)
Middle School - IT Pod | | Change Station
Active Advisory: Special Statement

Elev 0 ft 41.63 °N, 72.24 °W | Updated 5 seconds ago

Clear
Clear
83.3 °F
Feels Like 83 °F
N
0.0
Wind Variable Wind from North
Gusts 0.0 mph

Today
High -- | Low -- °F
--% Chance of Precip.
Yesterday
High -- | Low -- °F
Precip. -- in
Pressure 30.07 in
Visibility 10.0 miles
Clouds Clear
Heat Index 83 °F
Dew Point 58 °F
Humidity 43%
Rainfall 0.00 in
Snow Depth Not available.
6:12 AM 7:26 PM
Waning Crescent, 7% visible
METAR KIJD 292152Z AUTO 35007KT 10SM CLR 29/14 A3008 RMK AO2 SLP183 T02890139 $
Pressure 30.07 in
Visibility 10.0 miles
Clouds Clear
Heat Index 83 °F
Dew Point 58 °F
Humidity 43%
Rainfall 0.00 in
Snow Depth Not available.
6:12 AM 7:26 PM
Waning Crescent, 7% visible
METAR KIJD 292152Z AUTO 35007KT 10SM CLR 29/14 A3008 RMK AO2 SLP183 T02890139 $

10-Day Weather Forecast

Almanac

Astronomy

Aug. 29, 2016 Rise Set
Actual Time
Civil Twilight
Nautical Twilight
Astronomical Twilight
Moon
Length of Visible Light
Length of Day
Tomorrow will be .
, % of the Moon is Illuminated

Today's Extremes

State Highs State Lows

Community

WunderPhotos

Upload Photos

1,935,690 photos uploaded!

WunderBlog® & News

Nearby

Air Quality

  Air Quality AQ Index Pollutant
Not available.

Snow Depth

Station Depth Elevation

Earthquake Activity

City Distance Mag. Time & Date
Minimum magnitude displayed is 2.5.

Coastal Water Temperatures

Place Temperature

Stations

Nearby Weather Stations

Station Location Temp. Windchill Dew Point Humidity Wind Precip. Elev Updated Type
                   

Watches & Warnings

Special Statement
Issued: 3:43 PM EDT Aug. 29, 2016 – National Weather Service

A hot and quickly drying air mass will combine with gusty
northwest winds to create conditions more conducive for fire
spread late this afternoon until close to sunset across the New
York City metropolitan area... western Long Island... and southern
Connecticut.

Relative humidities decreasing to 25 to 35 percent during this
time... while winds gust to 20 to 25 mph... would likely aid fire
spread if ignition occurs.

Stay tuned to NOAA all hazards weather radio or visit our web
site at weather.Gov/NYC for further details and updates.


343 PM EDT Mon Aug 29 2016

A hot and quickly drying air mass will combine with gusty
northwest winds to create conditions more conducive for fire
spread late this afternoon until close to sunset across the New
York City metropolitan area... western Long Island... and southern
Connecticut.

Relative humidities decreasing to 25 to 35 percent during this
time... while winds gust to 20 to 25 mph... would likely aid fire
spread if ignition occurs.

Stay tuned to NOAA all hazards weather radio or visit our web
site at weather.Gov/NYC for further details and updates.